createdAt,value
2022-12-11T00:00:24.574Z,97.08
2022-12-11T00:01:24.980Z,97.07
2022-12-11T00:02:25.557Z,97.09
2022-12-11T00:03:25.893Z,97.1
2022-12-11T00:04:26.440Z,97.04
2022-12-11T00:05:26.552Z,97.08
2022-12-11T00:06:26.858Z,97.08
2022-12-11T00:07:27.478Z,97.02
2022-12-11T00:08:27.734Z,97.09
2022-12-11T00:09:28.010Z,97.14
2022-12-11T00:10:30.208Z,97.13
2022-12-11T00:11:28.852Z,97.24
2022-12-11T00:12:32.013Z,97.3
2022-12-11T00:13:29.883Z,97.23
2022-12-11T00:14:30.391Z,97.2
2022-12-11T00:15:30.520Z,97.14
2022-12-11T00:16:30.775Z,97.1
2022-12-11T00:17:31.029Z,96.9
2022-12-11T00:18:31.646Z,96.91
2022-12-11T00:19:31.860Z,96.82
2022-12-11T00:20:32.375Z,96.85
2022-12-11T00:21:32.913Z,96.82
2022-12-11T00:22:32.910Z,96.86
2022-12-11T00:23:35.369Z,96.91
2022-12-11T00:24:33.841Z,96.91
2022-12-11T00:25:34.150Z,96.85
2022-12-11T00:26:34.566Z,96.88
2022-12-11T00:27:34.858Z,96.85
2022-12-11T00:28:35.807Z,96.76
2022-12-11T00:29:35.739Z,96.7
2022-12-11T00:30:42.483Z,96.68
2022-12-11T00:31:40.465Z,96.65
2022-12-11T00:32:40.245Z,96.62
2022-12-11T00:33:40.548Z,96.53
2022-12-11T00:34:40.971Z,96.48
2022-12-11T00:35:43.229Z,96.44
2022-12-11T00:36:41.901Z,96.34
2022-12-11T00:37:42.270Z,96.48
2022-12-11T00:38:42.807Z,96.61
2022-12-11T00:39:42.962Z,96.68
2022-12-11T00:40:43.675Z,96.78
2022-12-11T00:41:43.681Z,96.74
2022-12-11T00:42:44.199Z,96.68
2022-12-11T00:43:44.841Z,96.57
2022-12-11T00:44:44.899Z,96.43
2022-12-11T00:45:47.395Z,96.43
2022-12-11T00:46:45.668Z,96.47
2022-12-11T00:47:46.078Z,96.4
2022-12-11T00:48:46.610Z,96.42
2022-12-11T00:49:50.029Z,96.46
2022-12-11T00:50:47.842Z,96.53
2022-12-11T00:51:48.048Z,96.53
2022-12-11T00:52:48.564Z,96.39
2022-12-11T00:53:49.089Z,96.49
2022-12-11T00:54:49.271Z,96.52
2022-12-11T00:55:49.705Z,96.49
2022-12-11T00:56:50.130Z,96.46
2022-12-11T00:57:52.177Z,96.42
2022-12-11T00:58:51.260Z,96.46
2022-12-11T00:59:51.062Z,96.41
2022-12-11T01:00:52.619Z,96.42
2022-12-11T01:01:51.896Z,96.33
2022-12-11T01:02:52.289Z,96.25
2022-12-11T01:03:53.552Z,96.24
2022-12-11T01:04:53.461Z,96.34
2022-12-11T01:05:54.910Z,96.38
2022-12-11T01:06:53.773Z,96.24
2022-12-11T01:07:54.317Z,96.17
2022-12-11T01:08:55.013Z,96.14
2022-12-11T01:09:54.929Z,96.22
2022-12-11T01:11:03.531Z,96.29
2022-12-11T01:11:55.960Z,96.24
2022-12-11T01:13:58.956Z,96.21
2022-12-11T01:14:59.461Z,96.24
2022-12-11T01:16:00.092Z,96.27
2022-12-11T01:17:00.294Z,96.3
2022-12-11T01:18:00.611Z,96.22
2022-12-11T01:19:00.921Z,96.3
2022-12-11T01:20:01.356Z,96.4
2022-12-11T01:21:09.426Z,96.36
2022-12-11T01:22:06.877Z,96.33
2022-12-11T01:23:07.495Z,96.33
2022-12-11T01:24:07.501Z,96.32
2022-12-11T01:25:09.236Z,96.27
2022-12-11T01:26:13.771Z,96.24
2022-12-11T01:27:11.221Z,96.24
2022-12-11T01:28:11.529Z,96.3
2022-12-11T01:29:11.740Z,96.26
2022-12-11T01:30:13.381Z,96.26
2022-12-11T01:31:15.006Z,96.33
2022-12-11T01:32:12.981Z,96.41
2022-12-11T01:33:13.314Z,96.36
2022-12-11T01:34:13.622Z,96.27
2022-12-11T01:35:14.248Z,96.19
2022-12-11T01:36:19.674Z,96.1
2022-12-11T01:37:17.025Z,96.12
2022-12-11T01:38:17.301Z,96.11
2022-12-11T01:39:17.650Z,96.1
2022-12-11T01:40:20.112Z,96.11
2022-12-11T01:41:19.314Z,96.11
2022-12-11T01:42:20.591Z,96.17
2022-12-11T01:43:19.410Z,96.29
2022-12-11T01:46:24.992Z,96.27
2022-12-11T01:47:24.833Z,96.26
2022-12-11T01:48:29.265Z,96.27
2022-12-11T01:49:28.967Z,96.23
2022-12-11T01:50:28.867Z,96.16
2022-12-11T01:51:29.610Z,96.21
2022-12-11T01:52:27.928Z,96.27
2022-12-11T01:54:32.790Z,96.25
2022-12-11T01:55:33.217Z,96.23
2022-12-11T01:56:35.973Z,96.26
2022-12-11T01:57:33.329Z,96.22
2022-12-11T01:58:40.909Z,96.21
2022-12-11T01:59:41.229Z,96.13
2022-12-11T02:00:38.571Z,96.14
2022-12-11T02:01:48.006Z,96.08
2022-12-11T02:02:40.471Z,96.13
2022-12-11T02:03:41.038Z,96.09
2022-12-11T02:05:41.670Z,96
2022-12-11T02:06:45.158Z,96.09
2022-12-11T02:07:49.865Z,95.96
2022-12-11T02:08:47.331Z,96.01
2022-12-11T02:09:48.561Z,95.98
2022-12-11T02:14:05.442Z,96.01
2022-12-11T02:30:43.572Z,96.31
2022-12-11T02:35:50.780Z,96.22
2022-12-11T02:36:53.451Z,96.17
2022-12-11T02:37:57.955Z,96.18
2022-12-11T02:38:58.897Z,96.16
2022-12-11T02:39:57.771Z,96.2
2022-12-11T02:40:59.538Z,96.19
2022-12-11T02:41:58.391Z,96.3
2022-12-11T02:43:01.680Z,96.33
2022-12-11T02:44:02.088Z,96.21
2022-12-11T02:45:01.799Z,96.06
2022-12-11T02:46:03.498Z,95.98
2022-12-11T02:47:02.927Z,95.95
2022-12-11T02:48:04.169Z,96.07
2022-12-11T02:50:08.078Z,96.16
2022-12-11T02:51:07.980Z,96.36
2022-12-11T02:52:07.468Z,96.52
2022-12-11T02:53:08.199Z,96.57
2022-12-11T02:54:10.754Z,96.58
2022-12-11T02:55:11.255Z,96.59
2022-12-11T02:59:23.794Z,96.9
2022-12-11T03:00:21.042Z,97.02
2022-12-11T03:01:22.443Z,97.05
2022-12-11T03:02:21.897Z,97.17
2022-12-11T03:03:23.111Z,97.24
2022-12-11T03:04:22.811Z,97.34
2022-12-11T03:05:23.133Z,97.38
2022-12-11T03:06:32.140Z,97.44
2022-12-11T03:07:32.249Z,97.49
2022-12-11T03:08:24.803Z,97.52
2022-12-11T03:09:25.199Z,97.52
2022-12-11T03:10:25.529Z,97.52
2022-12-11T03:11:25.722Z,97.58
2022-12-11T03:12:32.395Z,97.61
2022-12-11T03:13:29.947Z,97.58
2022-12-11T03:14:30.352Z,97.52
2022-12-11T03:15:40.610Z,97.46
2022-12-11T03:29:14.061Z,97.27
2022-12-11T03:30:14.279Z,97.35
2022-12-11T03:36:27.226Z,97.36
2022-12-11T03:37:28.871Z,97.39
2022-12-11T03:40:32.868Z,97.19
2022-12-11T03:41:33.695Z,97.32
2022-12-11T03:42:32.791Z,97.25
2022-12-11T03:43:33.411Z,97.26
2022-12-11T03:44:34.137Z,97.24
2022-12-11T03:45:33.727Z,97.21
2022-12-11T03:46:38.872Z,97.19
2022-12-11T03:47:38.462Z,97.18
2022-12-11T03:48:40.201Z,97.21
2022-12-11T03:49:42.144Z,97.28
2022-12-11T03:50:42.054Z,97.42
2022-12-11T03:51:41.668Z,97.41
2022-12-11T03:52:46.371Z,97.43
2022-12-11T03:53:45.767Z,97.36
2022-12-11T03:54:49.143Z,97.32
2022-12-11T03:55:49.671Z,97.36
2022-12-11T03:56:51.209Z,97.38
2022-12-11T03:57:49.267Z,97.51
2022-12-11T03:58:49.050Z,97.59
2022-12-11T03:59:50.194Z,97.66
2022-12-11T04:00:49.795Z,97.7
2022-12-11T04:01:50.490Z,97.7
2022-12-11T04:02:50.939Z,97.59
2022-12-11T04:03:50.943Z,97.57
2022-12-11T04:04:51.229Z,97.62
2022-12-11T04:05:53.929Z,97.73
2022-12-11T04:06:52.107Z,97.78
2022-12-11T04:07:52.416Z,97.79
2022-12-11T04:08:52.828Z,97.74
2022-12-11T04:09:53.148Z,97.61
2022-12-11T04:10:53.761Z,97.56
2022-12-11T04:11:53.963Z,97.59
2022-12-11T04:12:54.273Z,97.53
2022-12-11T04:13:54.795Z,97.39
2022-12-11T04:14:55.119Z,97.36
2022-12-11T04:15:55.432Z,97.39
2022-12-11T04:16:56.968Z,97.33
2022-12-11T04:17:56.469Z,97.35
2022-12-11T04:18:56.577Z,97.43
2022-12-11T04:19:57.102Z,97.46
2022-12-11T04:20:57.619Z,97.48
2022-12-11T04:21:57.932Z,97.47
2022-12-11T04:22:58.250Z,97.4
2022-12-11T04:23:58.662Z,97.39
2022-12-11T04:25:00.413Z,97.43
2022-12-11T04:26:08.499Z,97.44
2022-12-11T04:27:00.822Z,97.38
2022-12-11T04:28:01.137Z,97.44
2022-12-11T04:29:01.770Z,97.47
2022-12-11T04:30:03.511Z,97.5
2022-12-11T04:31:03.556Z,97.4
2022-12-11T04:32:02.697Z,97.37
2022-12-11T04:33:04.036Z,97.38
2022-12-11T04:34:03.533Z,97.33
2022-12-11T04:35:04.778Z,97.27
2022-12-11T04:36:06.000Z,97.25
2022-12-11T04:37:05.500Z,97.33
2022-12-11T04:38:05.919Z,97.33
2022-12-11T04:39:06.229Z,97.33
2022-12-11T04:40:09.109Z,97.32
2022-12-11T04:41:12.790Z,97.38
2022-12-11T04:42:10.456Z,97.31
2022-12-11T04:43:11.180Z,97.3
2022-12-11T04:44:11.692Z,97.35
2022-12-11T04:45:13.102Z,97.47
2022-12-11T04:46:19.983Z,97.48
2022-12-11T04:47:17.752Z,97.54
2022-12-11T04:48:17.860Z,97.54
2022-12-11T04:49:18.278Z,97.46
2022-12-11T04:50:18.599Z,97.47
2022-12-11T04:51:19.618Z,97.55
2022-12-11T04:52:19.321Z,97.6
2022-12-11T04:53:19.728Z,97.55
2022-12-11T04:54:20.350Z,97.6
2022-12-11T04:55:20.581Z,97.66
2022-12-11T04:56:21.487Z,97.82
2022-12-11T04:57:21.304Z,97.82
2022-12-11T04:58:22.322Z,97.8
2022-12-11T04:59:22.331Z,97.75
2022-12-11T05:00:22.440Z,97.74
2022-12-11T05:01:23.707Z,97.79
2022-12-11T05:02:23.329Z,97.82
2022-12-11T05:03:23.571Z,97.94
2022-12-11T05:04:24.214Z,97.88
2022-12-11T05:05:24.532Z,97.94
2022-12-11T05:06:24.841Z,97.84
2022-12-11T05:07:25.151Z,97.92
2022-12-11T05:08:25.702Z,97.86
2022-12-11T05:09:26.700Z,97.81
2022-12-11T05:10:26.398Z,97.79
2022-12-11T05:11:26.831Z,97.71
2022-12-11T05:12:27.692Z,97.62
2022-12-11T05:13:28.877Z,97.58
2022-12-11T05:14:27.965Z,97.66
2022-12-11T05:15:28.400Z,97.73
2022-12-11T05:16:28.935Z,97.68
2022-12-11T05:17:29.212Z,97.69
2022-12-11T05:18:29.536Z,97.69
2022-12-11T05:19:29.950Z,97.59
2022-12-11T05:20:30.238Z,97.72
2022-12-11T05:21:35.042Z,97.75
2022-12-11T05:22:32.721Z,97.71
2022-12-11T05:23:33.661Z,97.72
2022-12-11T05:24:33.569Z,97.79
2022-12-11T05:25:33.987Z,97.88
2022-12-11T05:26:34.507Z,97.88
2022-12-11T05:27:34.828Z,97.88
2022-12-11T05:28:36.876Z,97.85
2022-12-11T05:29:35.748Z,97.89
2022-12-11T05:30:35.847Z,97.98
2022-12-11T05:31:36.397Z,97.94
2022-12-11T05:32:36.661Z,97.89
2022-12-11T05:33:37.088Z,97.97
2022-12-11T05:34:37.626Z,97.94
2022-12-11T05:35:37.928Z,97.89
2022-12-11T05:36:38.865Z,97.89
2022-12-11T05:37:38.766Z,97.91
2022-12-11T05:38:39.072Z,97.99
2022-12-11T05:39:39.607Z,98.11
2022-12-11T05:40:39.785Z,98.18
2022-12-11T05:41:40.327Z,98.26
2022-12-11T05:42:40.645Z,98.26
2022-12-11T05:43:41.259Z,98.32
2022-12-11T05:44:41.387Z,98.34
2022-12-11T05:45:41.781Z,98.23
2022-12-11T05:46:42.365Z,98.16
2022-12-11T05:47:44.665Z,98.15
2022-12-11T05:48:44.361Z,98.13
2022-12-11T05:49:43.347Z,98.11
2022-12-11T05:50:43.761Z,98.18
2022-12-11T05:51:44.278Z,98.25
2022-12-11T05:52:44.510Z,98.33
2022-12-11T05:53:46.313Z,98.4
2022-12-11T05:54:49.132Z,98.38
2022-12-11T05:55:46.688Z,98.53
2022-12-11T05:56:50.265Z,98.58
2022-12-11T05:57:48.006Z,98.62
2022-12-11T05:58:50.067Z,98.69
2022-12-11T05:59:49.454Z,98.71
2022-12-11T06:00:49.985Z,98.76
2022-12-11T06:01:50.421Z,98.83
2022-12-11T06:02:50.796Z,98.95
2022-12-11T06:03:51.025Z,98.96
2022-12-11T06:04:51.446Z,99
2022-12-11T06:05:51.844Z,99.01
2022-12-11T06:06:55.030Z,98.99
2022-12-11T06:07:52.621Z,99.03
2022-12-11T06:08:54.221Z,99.06
2022-12-11T06:09:53.305Z,99.05
2022-12-11T06:10:53.927Z,99.01
2022-12-11T06:11:54.148Z,99.03
2022-12-11T06:12:54.666Z,98.97
2022-12-11T06:13:55.609Z,98.88
2022-12-11T06:14:55.405Z,98.85
2022-12-11T06:15:56.025Z,98.83
2022-12-11T06:16:56.127Z,98.81
2022-12-11T06:17:56.533Z,98.78
2022-12-11T06:18:58.656Z,98.85
2022-12-11T06:19:57.878Z,98.84
2022-12-11T06:20:58.504Z,98.85
2022-12-11T06:21:58.803Z,98.85
2022-12-11T06:22:59.743Z,98.83
2022-12-11T06:24:02.007Z,98.76
2022-12-11T06:24:59.965Z,98.68
2022-12-11T06:26:00.375Z,98.66
2022-12-11T06:27:00.485Z,98.66
2022-12-11T06:28:01.207Z,98.62
2022-12-11T06:29:01.418Z,98.65
2022-12-11T06:30:01.924Z,98.61
2022-12-11T06:31:03.274Z,98.59
2022-12-11T06:32:02.862Z,98.69
2022-12-11T06:33:03.188Z,98.75
2022-12-11T06:34:03.489Z,98.78
2022-12-11T06:35:04.424Z,98.79
2022-12-11T06:36:06.386Z,98.83
2022-12-11T06:37:04.549Z,98.81
2022-12-11T06:38:04.959Z,98.83
2022-12-11T06:39:05.449Z,98.8
2022-12-11T06:40:07.285Z,98.81
2022-12-11T06:41:08.128Z,98.78
2022-12-11T06:42:07.355Z,98.76
2022-12-11T06:43:07.864Z,98.68
2022-12-11T06:44:08.185Z,98.64
2022-12-11T06:45:10.103Z,98.76
2022-12-11T06:46:14.820Z,98.79
2022-12-11T06:47:12.191Z,98.68
2022-12-11T06:48:12.602Z,98.61
2022-12-11T06:49:13.330Z,98.62
2022-12-11T06:50:13.433Z,98.63
2022-12-11T06:51:19.509Z,98.56
2022-12-11T06:52:18.703Z,98.6
2022-12-11T06:53:17.367Z,98.6
2022-12-11T06:54:17.764Z,98.73
2022-12-11T06:55:18.181Z,98.72
2022-12-11T06:56:18.391Z,98.67
2022-12-11T06:57:19.206Z,98.65
2022-12-11T06:58:19.222Z,98.59
2022-12-11T06:59:19.843Z,98.58
2022-12-11T07:00:20.568Z,98.5
2022-12-11T07:01:23.736Z,98.45
2022-12-11T07:02:21.848Z,98.47
2022-12-11T07:03:21.612Z,98.48
2022-12-11T07:04:22.144Z,98.46
2022-12-11T07:05:22.552Z,98.5
2022-12-11T07:06:23.585Z,98.55
2022-12-11T07:07:23.284Z,98.54
2022-12-11T07:08:23.668Z,98.54
2022-12-11T07:09:25.031Z,98.53
2022-12-11T07:10:25.048Z,98.58
2022-12-11T07:11:25.566Z,98.64
2022-12-11T07:12:25.968Z,98.69
2022-12-11T07:13:26.390Z,98.76
2022-12-11T07:14:26.700Z,98.74
2022-12-11T07:15:27.222Z,98.73
2022-12-11T07:16:28.011Z,98.64
2022-12-11T07:17:29.365Z,98.67
2022-12-11T07:18:28.986Z,98.65
2022-12-11T07:19:28.688Z,98.6
2022-12-11T07:20:29.107Z,98.76
2022-12-11T07:21:29.426Z,98.8
2022-12-11T07:22:29.728Z,98.9
2022-12-11T07:23:30.548Z,98.92
2022-12-11T07:24:31.278Z,98.93
2022-12-11T07:25:31.586Z,98.89
2022-12-11T07:26:32.105Z,98.83
2022-12-11T07:27:32.426Z,98.83
2022-12-11T07:28:33.250Z,98.83
2022-12-11T07:29:33.558Z,98.82
2022-12-11T07:30:33.693Z,98.81
2022-12-11T07:31:34.244Z,98.79
2022-12-11T07:32:34.306Z,98.71
2022-12-11T07:33:35.748Z,98.67
2022-12-11T07:34:35.126Z,98.68
2022-12-11T07:35:36.267Z,98.66
2022-12-11T07:36:35.865Z,98.61
2022-12-11T07:37:36.613Z,98.56
2022-12-11T07:38:36.893Z,98.53
2022-12-11T07:39:37.427Z,98.47
2022-12-11T07:40:37.627Z,98.42
2022-12-11T07:41:37.847Z,98.39
2022-12-11T07:42:42.803Z,98.38
2022-12-11T07:43:44.201Z,98.37
2022-12-11T07:44:43.605Z,98.32
2022-12-11T07:45:44.111Z,98.29
2022-12-11T07:46:44.423Z,98.13
2022-12-11T07:47:44.837Z,98.22
2022-12-11T07:48:47.610Z,98.21
2022-12-11T07:49:45.585Z,98.24
2022-12-11T07:50:45.984Z,98.13
2022-12-11T07:51:46.498Z,98.18
2022-12-11T07:52:46.824Z,98.16
2022-12-11T07:53:49.492Z,98.13
2022-12-11T07:54:47.668Z,98.31
2022-12-11T07:55:47.862Z,98.33
2022-12-11T07:56:53.185Z,98.25
2022-12-11T07:57:51.255Z,98.31
2022-12-11T07:58:51.668Z,98.25
2022-12-11T07:59:52.090Z,98.27
2022-12-11T08:00:52.423Z,98.2
2022-12-11T08:01:52.933Z,98.14
2022-12-11T08:02:53.172Z,98.13
2022-12-11T08:03:54.592Z,98.18
2022-12-11T08:04:54.065Z,98.18
2022-12-11T08:05:54.382Z,98.16
2022-12-11T08:06:54.811Z,98.11
2022-12-11T08:07:55.343Z,98.11
2022-12-11T08:08:56.856Z,98.11
2022-12-11T08:09:55.945Z,98.15
2022-12-11T08:10:56.267Z,98.22
2022-12-11T08:11:56.877Z,98.26
2022-12-11T08:12:59.849Z,98.25
2022-12-11T08:13:59.140Z,98.19
2022-12-11T08:14:58.227Z,98.07
2022-12-11T08:15:58.645Z,98.05
2022-12-11T08:16:58.705Z,98.08
2022-12-11T08:17:59.067Z,98.13
2022-12-11T08:18:59.582Z,98.08
2022-12-11T08:19:59.792Z,98
2022-12-11T08:21:04.414Z,98.11
2022-12-11T08:22:01.868Z,98.12
2022-12-11T08:23:02.065Z,98.09
2022-12-11T08:24:03.425Z,97.97
2022-12-11T08:25:04.231Z,97.95
2022-12-11T08:26:05.904Z,97.91
2022-12-11T08:27:04.345Z,97.87
2022-12-11T08:28:05.480Z,97.92
2022-12-11T08:29:05.288Z,98.03
2022-12-11T08:30:07.345Z,98.05
2022-12-11T08:31:10.172Z,98.06
2022-12-11T08:32:12.099Z,98.22
2022-12-11T08:33:09.917Z,98.24
2022-12-11T08:34:10.346Z,98.25
2022-12-11T08:35:11.017Z,98.44
2022-12-11T08:36:14.645Z,98.52
2022-12-11T08:37:11.974Z,98.5
2022-12-11T08:38:12.301Z,98.52
2022-12-11T08:39:12.826Z,98.56
2022-12-11T08:40:13.567Z,98.46
2022-12-11T08:41:18.788Z,98.4
2022-12-11T08:42:16.232Z,98.39
2022-12-11T08:43:16.445Z,98.23
2022-12-11T08:44:17.203Z,98.18
2022-12-11T08:45:17.489Z,98.16
2022-12-11T08:46:17.874Z,98.28
2022-12-11T08:47:18.198Z,98.23
2022-12-11T08:48:18.411Z,98.23
2022-12-11T08:49:19.147Z,98.21
2022-12-11T08:50:19.450Z,98.12
2022-12-11T08:51:22.318Z,98.06
2022-12-11T08:52:19.974Z,98.22
2022-12-11T08:53:20.496Z,98.31
2022-12-11T08:54:20.903Z,98.34
2022-12-11T08:55:21.229Z,98.33
2022-12-11T08:56:21.844Z,98.24
2022-12-11T08:57:22.266Z,98.12
2022-12-11T08:58:22.369Z,98.12
2022-12-11T08:59:22.684Z,98.24
2022-12-11T09:00:23.109Z,98.21
2022-12-11T09:01:27.913Z,98.13
2022-12-11T09:02:25.510Z,97.95
2022-12-11T09:03:25.889Z,97.88
2022-12-11T09:04:26.094Z,97.91
2022-12-11T09:05:26.611Z,97.85
2022-12-11T09:06:28.975Z,97.85
2022-12-11T09:07:27.565Z,97.93
2022-12-11T09:08:27.786Z,98.13
2022-12-11T09:09:28.072Z,98.13
2022-12-11T09:10:28.507Z,98.17
2022-12-11T09:11:31.703Z,98.24
2022-12-11T09:12:29.735Z,98.11
2022-12-11T09:13:29.848Z,98.12
2022-12-11T09:14:30.056Z,98.04
2022-12-11T09:15:30.548Z,97.82
2022-12-11T09:16:31.308Z,97.91
2022-12-11T09:17:31.194Z,97.89
2022-12-11T09:18:31.618Z,97.83
2022-12-11T09:19:32.620Z,97.82
2022-12-11T09:20:32.443Z,97.84
2022-12-11T09:21:32.867Z,97.87
2022-12-11T09:22:33.479Z,97.87
2022-12-11T09:23:33.909Z,97.81
2022-12-11T09:24:34.227Z,97.8
2022-12-11T09:25:34.475Z,97.8
2022-12-11T09:26:34.640Z,97.93
2022-12-11T09:27:35.385Z,97.94
2022-12-11T09:28:35.576Z,98.01
2022-12-11T09:29:36.208Z,98.04
2022-12-11T09:30:36.270Z,97.97
2022-12-11T09:31:37.634Z,98.03
2022-12-11T09:32:37.050Z,98.08
2022-12-11T09:33:37.568Z,98
2022-12-11T09:34:38.485Z,97.99
2022-12-11T09:35:38.992Z,97.98
2022-12-11T09:36:41.367Z,97.79
2022-12-11T09:37:39.749Z,97.68
2022-12-11T09:38:40.046Z,97.7
2022-12-11T09:39:40.453Z,97.64
2022-12-11T09:40:42.407Z,97.63
2022-12-11T09:47:01.402Z,98.14
2022-12-11T09:48:02.214Z,98.11
2022-12-11T09:49:03.865Z,98.15
2022-12-11T09:54:19.458Z,98.42
2022-12-11T09:55:22.536Z,98.44
2022-12-11T10:09:03.386Z,98.15
2022-12-11T10:18:19.924Z,98.02
2022-12-11T10:21:21.379Z,97.98
2022-12-11T10:25:40.267Z,98.12
2022-12-11T10:26:39.758Z,98.07
2022-12-11T10:27:40.267Z,98.1
2022-12-11T10:28:38.529Z,98.04
2022-12-11T10:29:39.357Z,97.99
2022-12-11T10:30:45.365Z,98.03
2022-12-11T10:31:53.496Z,98.12
2022-12-11T10:34:59.669Z,98.17
2022-12-11T10:35:55.151Z,98.17
2022-12-11T10:37:00.170Z,98.25
2022-12-11T10:37:58.865Z,98.29
2022-12-11T10:38:56.617Z,98.43
2022-12-11T10:39:56.826Z,98.63
2022-12-11T10:42:14.567Z,98.69
2022-12-11T10:43:01.965Z,98.62
2022-12-11T10:44:16.206Z,98.55
2022-12-11T10:45:05.665Z,98.5
2022-12-11T10:46:05.847Z,98.57
2022-12-11T10:47:12.233Z,98.6
2022-12-11T10:48:15.307Z,98.48
2022-12-11T10:50:08.563Z,98.57
2022-12-11T10:51:08.268Z,98.56
2022-12-11T10:56:15.856Z,98.21
2022-12-11T10:57:16.393Z,98.2
2022-12-11T10:58:20.209Z,98.21
2022-12-11T10:59:30.027Z,98.23
2022-12-11T11:01:28.921Z,98.18
2022-12-11T11:02:31.269Z,98.23
2022-12-11T11:03:29.131Z,98.11
2022-12-11T11:04:37.023Z,98.16
2022-12-11T11:05:35.584Z,98.19
2022-12-11T11:06:33.560Z,98.02
2022-12-11T11:07:33.477Z,97.93
2022-12-11T11:08:46.262Z,97.84
2022-12-11T11:09:38.806Z,97.87
2022-12-11T11:10:49.248Z,97.78
2022-12-11T11:11:50.884Z,97.75
2022-12-11T11:12:46.408Z,97.71
2022-12-11T11:13:43.941Z,97.8
2022-12-11T11:14:44.474Z,97.75
2022-12-11T11:15:45.571Z,97.67
2022-12-11T11:16:47.240Z,97.52
2022-12-11T11:17:55.131Z,97.58
2022-12-11T11:18:56.054Z,97.67
2022-12-11T11:20:04.366Z,97.68
2022-12-11T11:20:57.188Z,97.74
2022-12-11T11:22:01.096Z,97.77
2022-12-11T11:23:01.935Z,97.65
2022-12-11T11:23:59.669Z,97.69
2022-12-11T11:25:00.096Z,97.66
2022-12-11T11:26:02.148Z,97.7
2022-12-11T11:27:16.750Z,97.62
2022-12-11T11:29:05.347Z,97.59
2022-12-11T11:31:13.298Z,97.53
2022-12-11T11:32:19.472Z,97.61
2022-12-11T11:34:20.427Z,97.63
2022-12-11T11:35:25.142Z,97.6
2022-12-11T11:36:30.687Z,97.68
2022-12-11T11:37:34.187Z,97.79
2022-12-11T11:39:38.285Z,97.63
2022-12-11T11:40:37.063Z,97.64
2022-12-11T11:45:55.690Z,97.8
2022-12-11T11:51:08.155Z,97.88
2022-12-11T11:58:27.139Z,97.46
2022-12-11T12:00:33.619Z,97.5
2022-12-11T12:01:32.581Z,97.47
2022-12-11T12:02:32.023Z,97.58
2022-12-11T12:03:32.313Z,97.54
2022-12-11T12:04:35.086Z,97.46
2022-12-11T12:16:01.868Z,97.52
2022-12-11T12:44:23.272Z,98.27
2022-12-11T12:47:30.839Z,98.17
2022-12-11T12:48:29.129Z,98.22
2022-12-11T12:50:41.310Z,98.29
2022-12-11T12:51:34.037Z,98.33
2022-12-11T12:52:39.652Z,98.35
2022-12-11T12:53:37.649Z,98.35
2022-12-11T12:54:38.954Z,98.28
2022-12-11T12:55:37.960Z,98.3
2022-12-11T12:56:38.742Z,98.32
2022-12-11T12:57:45.344Z,98.32
2022-12-11T12:58:45.771Z,98.32
2022-12-11T12:59:53.850Z,98.33
2022-12-11T13:00:46.562Z,98.46
2022-12-11T13:01:50.059Z,98.42
2022-12-11T13:02:51.421Z,98.33
2022-12-11T13:06:58.105Z,98.32
2022-12-11T13:08:01.730Z,98.36
2022-12-11T13:19:39.050Z,98.67
2022-12-11T13:21:38.950Z,98.65
2022-12-11T13:23:40.191Z,98.59
2022-12-11T13:26:46.668Z,98.54
2022-12-11T13:27:46.568Z,98.59
2022-12-11T13:28:48.386Z,98.56
2022-12-11T13:29:47.410Z,98.53
2022-12-11T13:31:58.531Z,98.57
2022-12-11T13:34:03.497Z,98.65
2022-12-11T13:34:59.203Z,98.66
2022-12-11T13:36:58.928Z,98.7
2022-12-11T13:46:26.821Z,98.75
2022-12-11T13:47:25.307Z,98.74
2022-12-11T13:49:28.687Z,98.79
2022-12-11T13:50:31.885Z,98.79
2022-12-11T13:51:32.284Z,98.73
2022-12-11T13:52:29.829Z,98.67
2022-12-11T13:53:30.166Z,98.63
2022-12-11T13:54:32.785Z,98.6
2022-12-11T13:55:35.384Z,98.6
2022-12-11T13:56:32.733Z,98.64
2022-12-11T13:57:33.368Z,98.69
2022-12-11T13:58:39.909Z,98.74
2022-12-11T13:59:42.164Z,98.77
2022-12-11T14:00:39.963Z,98.85
2022-12-11T14:01:40.145Z,98.86
2022-12-11T14:02:41.453Z,98.86
2022-12-11T14:04:45.302Z,98.82
2022-12-11T14:05:44.222Z,98.85
2022-12-11T14:06:44.694Z,98.89
2022-12-11T14:08:51.756Z,98.98
2022-12-11T14:09:49.506Z,98.96
2022-12-11T14:10:55.767Z,98.95
2022-12-11T14:11:56.907Z,98.93
2022-12-11T14:13:59.884Z,99.05
2022-12-11T14:14:59.776Z,99.03
2022-12-11T14:15:57.730Z,99.08
2022-12-11T14:16:58.165Z,99.14
2022-12-11T14:17:59.793Z,99.14
2022-12-11T14:19:07.585Z,99
2022-12-11T14:20:03.184Z,99.02
2022-12-11T14:21:04.227Z,99.03
2022-12-11T14:22:05.353Z,99
2022-12-11T14:24:06.086Z,99.02
2022-12-11T14:27:17.363Z,99.02
2022-12-11T14:28:17.352Z,99.16
2022-12-11T14:36:33.293Z,99.23
2022-12-11T14:37:34.127Z,99.23
2022-12-11T14:39:46.216Z,99.25
2022-12-11T14:40:42.645Z,99.17
2022-12-11T14:42:44.291Z,98.99
2022-12-11T14:45:50.337Z,99.09
2022-12-11T14:46:56.404Z,99.17
2022-12-11T14:47:50.985Z,99.19
2022-12-11T14:52:00.118Z,99.15
2022-12-11T14:54:01.975Z,99.05
2022-12-11T14:56:08.006Z,98.99
2022-12-11T14:57:06.921Z,99.07
2022-12-11T15:03:23.440Z,99.02
2022-12-11T15:05:24.166Z,98.96
2022-12-11T15:07:26.540Z,98.99
2022-12-11T15:11:36.768Z,98.92
2022-12-11T15:15:47.588Z,98.81
2022-12-11T15:16:46.711Z,98.78
2022-12-11T15:17:52.468Z,98.85
2022-12-11T15:18:52.531Z,98.9
2022-12-11T15:19:53.866Z,98.85
2022-12-11T15:20:53.960Z,98.88
2022-12-11T15:21:53.466Z,98.84
2022-12-11T15:22:53.562Z,98.87
2022-12-11T15:23:56.547Z,98.91
2022-12-11T15:24:55.227Z,98.83
2022-12-11T15:25:57.781Z,98.85
2022-12-11T15:26:59.028Z,98.83
2022-12-11T15:27:59.347Z,98.85
2022-12-11T15:29:01.185Z,98.83
2022-12-11T15:29:58.959Z,98.86
2022-12-11T15:31:02.562Z,98.88
2022-12-11T15:33:18.008Z,98.82
2022-12-11T15:39:20.087Z,98.8
2022-12-11T15:40:20.922Z,98.8
2022-12-11T15:41:21.255Z,98.77
2022-12-11T15:43:24.946Z,98.81
2022-12-11T15:44:25.129Z,98.84
2022-12-11T15:45:27.278Z,98.87
2022-12-11T15:46:25.990Z,98.93
2022-12-11T15:47:29.049Z,98.96
2022-12-11T15:48:26.607Z,98.9
2022-12-11T15:49:26.913Z,98.9
2022-12-11T15:50:29.789Z,98.96
2022-12-11T15:51:27.849Z,98.91
2022-12-11T15:52:28.168Z,98.85
2022-12-11T15:53:28.783Z,98.85
2022-12-11T15:54:29.000Z,98.87
2022-12-11T15:55:29.621Z,98.94
2022-12-11T15:56:29.728Z,98.92
2022-12-11T15:57:30.552Z,98.94
2022-12-11T15:58:30.872Z,98.9
2022-12-11T15:59:31.594Z,98.98
2022-12-11T16:00:31.288Z,98.99
2022-12-11T16:01:31.675Z,98.93
2022-12-11T16:02:32.354Z,98.93
2022-12-11T16:03:32.331Z,98.94
2022-12-11T16:04:32.756Z,98.93
2022-12-11T16:05:33.164Z,98.94
2022-12-11T16:06:34.093Z,98.95
2022-12-11T16:07:33.992Z,98.96
2022-12-11T16:08:34.428Z,98.97
2022-12-11T16:09:34.749Z,98.95
2022-12-11T16:10:35.151Z,98.95
2022-12-11T16:11:35.465Z,98.87
2022-12-11T16:12:36.086Z,98.92
2022-12-11T16:13:36.396Z,98.96
2022-12-11T16:14:36.815Z,98.93
2022-12-11T16:15:44.860Z,98.96
2022-12-11T16:16:37.438Z,98.94
2022-12-11T16:17:37.847Z,98.99
2022-12-11T16:18:38.485Z,98.99
2022-12-11T16:19:40.326Z,98.9
2022-12-11T16:20:40.635Z,98.94
2022-12-11T16:21:39.312Z,98.95
2022-12-11T16:22:39.750Z,98.93
2022-12-11T16:23:40.146Z,98.96
2022-12-11T16:24:41.087Z,98.99
2022-12-11T16:25:43.496Z,99.03
2022-12-11T16:26:42.118Z,99.05
2022-12-11T16:27:42.422Z,99.07
2022-12-11T16:28:43.254Z,98.96
2022-12-11T16:29:43.152Z,98.95
2022-12-11T16:30:44.652Z,98.97
2022-12-11T16:31:44.108Z,98.96
2022-12-11T16:32:47.276Z,98.86
2022-12-11T16:33:44.824Z,98.94
2022-12-11T16:34:45.050Z,98.99
2022-12-11T16:35:45.552Z,99.07
2022-12-11T16:36:46.073Z,99.06
2022-12-11T16:37:48.939Z,99.08
2022-12-11T16:38:53.179Z,99.04
2022-12-11T16:39:51.312Z,99
2022-12-11T16:41:00.002Z,99.04
2022-12-11T16:41:52.633Z,99.02
2022-12-11T16:42:52.871Z,98.89
2022-12-11T16:43:54.313Z,98.96
2022-12-11T16:44:53.596Z,98.98
2022-12-11T16:45:57.044Z,98.91
2022-12-11T16:46:55.458Z,98.93
2022-12-11T16:47:54.957Z,98.94
2022-12-11T16:48:55.364Z,98.97
2022-12-11T16:49:59.014Z,98.89
2022-12-11T16:50:56.712Z,98.89
2022-12-11T16:51:57.129Z,98.81
2022-12-11T16:52:57.646Z,98.79
2022-12-11T16:53:57.848Z,98.86
2022-12-11T16:54:58.171Z,98.78
2022-12-11T16:55:58.696Z,98.79
2022-12-11T16:56:59.003Z,98.78